Time;durP1;ratioP1;P1;durP2;ratioP2;P2;SDS_P1;SDS_P2;PMS_P1;PMS_P2;Temp;Humidity;BMP_temperature;BMP_pressure;BME280_temperature;BME280_humidity;BME280_pressure;Samples;Min_cycle;Max_cycle;Signal;HPM_P1;HPM_P2
2022/11/01 00:02:23;;;;;;;2.15;1.90;;;18.70;65.70;;;;;;6225102;22;20524;-86
2022/11/01 00:04:54;;;;;;;3.05;1.92;;;18.60;65.80;;;;;;6249818;23;20193;-86
2022/11/01 00:07:25;;;;;;;3.40;2.10;;;18.60;65.80;;;;;;6150115;23;20153;-86
2022/11/01 00:09:59;;;;;;;2.53;1.98;;;18.60;65.70;;;;;;6149166;23;20163;-86
2022/11/01 00:12:32;;;;;;;2.38;1.83;;;18.60;65.90;;;;;;6146746;23;20177;-86
2022/11/01 00:15:01;;;;;;;2.83;1.70;;;18.60;65.80;;;;;;6217363;23;20493;-86
2022/11/01 00:17:31;;;;;;;3.33;1.88;;;18.60;65.80;;;;;;6218493;23;20153;-86
2022/11/01 00:19:57;;;;;;;2.78;1.80;;;18.60;65.80;;;;;;6193823;23;20620;-86
2022/11/01 00:22:27;;;;;;;3.63;1.77;;;18.60;65.80;;;;;;6218410;23;20196;-86
2022/11/01 00:24:58;;;;;;;2.75;1.80;;;18.60;65.80;;;;;;6193338;23;20178;-86
2022/11/01 00:27:31;;;;;;;2.30;1.80;;;18.60;66.00;;;;;;6192794;23;20154;-86
2022/11/01 00:30:00;;;;;;;2.17;1.70;;;18.60;65.90;;;;;;6217676;23;20150;-86
2022/11/01 00:32:32;;;;;;;3.22;2.00;;;18.60;66.00;;;;;;6217397;23;20173;-86
2022/11/01 00:35:02;;;;;;;3.13;1.67;;;18.60;66.00;;;;;;6208704;22;20151;-86
2022/11/01 00:37:32;;;;;;;2.17;1.88;;;18.60;65.80;;;;;;6259303;22;20246;-86
2022/11/01 00:40:03;;;;;;;2.45;1.98;;;18.60;65.80;;;;;;6260202;22;20151;-86
2022/11/01 00:42:34;;;;;;;2.33;1.70;;;18.60;65.90;;;;;;6234279;22;20159;-86
2022/11/01 00:45:07;;;;;;;2.72;1.80;;;18.60;65.70;;;;;;6259212;22;20619;-86
2022/11/01 00:47:33;;;;;;;2.45;1.73;;;18.60;65.90;;;;;;6209070;22;20175;-86
2022/11/01 00:50:05;;;;;;;2.70;1.73;;;18.60;65.80;;;;;;6285860;22;20548;-86
2022/11/01 00:52:34;;;;;;;3.97;2.20;;;18.60;66.00;;;;;;6234063;22;20148;-86
2022/11/01 00:55:05;;;;;;;3.28;1.90;;;18.60;65.90;;;;;;6285027;22;20162;-86
2022/11/01 00:57:32;;;;;;;3.50;1.80;;;18.60;65.80;;;;;;6232670;22;20247;-86
2022/11/01 00:59:57;;;;;;;2.88;1.92;;;18.50;65.70;;;;;;6311271;22;20152;-86
2022/11/01 01:02:23;;;;;;;2.17;1.60;;;18.60;66.00;;;;;;6284755;22;20588;-86
2022/11/01 01:04:49;;;;;;;2.13;1.80;;;18.50;65.80;;;;;;6259534;22;20178;-86
2022/11/01 01:07:25;;;;;;;2.50;1.90;;;18.50;65.80;;;;;;6260048;22;20137;-86
2022/11/01 01:09:56;;;;;;;2.50;1.90;;;18.50;65.80;;;;;;6120408;23;20257;-86
2022/11/01 01:12:22;;;;;;;2.78;2.03;;;18.50;66.00;;;;;;6218140;23;20147;-86
2022/11/01 01:14:53;;;;;;;2.00;1.80;;;18.60;65.80;;;;;;6217809;23;20155;-86
2022/11/01 01:17:29;;;;;;;2.20;1.60;;;18.50;65.70;;;;;;6142420;23;20157;-86
2022/11/01 01:19:54;;;;;;;3.50;2.03;;;18.50;66.60;;;;;;6169512;23;20154;-86
2022/11/01 01:22:21;;;;;;;2.65;1.85;;;18.50;65.80;;;;;;6192251;23;20174;-86
2022/11/01 01:24:47;;;;;;;2.28;2.03;;;18.50;65.80;;;;;;6192479;23;20236;-86
2022/11/01 01:27:13;;;;;;;1.77;1.60;;;18.50;65.70;;;;;;6217586;23;20140;-86
2022/11/01 01:29:46;;;;;;;2.75;1.70;;;18.50;65.90;;;;;;6219086;23;20161;-86
2022/11/01 01:32:22;;;;;;;2.67;1.83;;;18.50;65.80;;;;;;6154184;23;20149;-86
2022/11/01 01:34:48;;;;;;;2.17;1.80;;;18.50;65.80;;;;;;6158519;23;20203;-86
2022/11/01 01:37:14;;;;;;;2.00;1.50;;;18.50;65.80;;;;;;6197678;23;20150;-86
2022/11/01 01:39:40;;;;;;;2.50;1.80;;;18.50;65.80;;;;;;6197379;22;20154;-86
2022/11/01 01:42:22;;;;;;;2.13;1.80;;;18.50;65.80;;;;;;6261768;22;20274;-86
2022/11/01 01:45:25;;;;;;;2.50;1.85;;;18.50;66.00;;;;;;6213551;22;20175;-87
2022/11/01 01:47:59;;;;;;;2.92;2.00;;;18.50;66.10;;;;;;6269157;22;20218;-86
2022/11/01 01:50:39;;;;;;;2.58;1.77;;;18.50;66.00;;;;;;6185748;22;20243;-86
2022/11/01 01:53:22;;;;;;;2.33;1.95;;;18.50;66.10;;;;;;6186054;22;20155;-86
2022/11/01 01:56:10;;;;;;;2.83;1.52;;;18.50;66.10;;;;;;6081168;23;20156;-86
2022/11/01 01:58:43;;;;;;;2.10;1.80;;;18.50;66.00;;;;;;6128820;23;20148;-86
2022/11/01 02:01:21;;;;;;;2.67;1.80;;;18.50;66.00;;;;;;6104678;23;20182;-86
2022/11/01 02:03:47;;;;;;;1.92;1.63;;;18.50;65.80;;;;;;6099519;23;20210;-86
2022/11/01 02:06:19;;;;;;;4.40;1.83;;;18.50;66.10;;;;;;6157966;23;20654;-86
2022/11/01 02:08:55;;;;;;;2.03;1.75;;;18.40;66.00;;;;;;6133023;23;20151;-86
2022/11/01 02:11:21;;;;;;;2.28;2.05;;;18.50;66.30;;;;;;6133488;23;20174;-86
2022/11/01 02:13:51;;;;;;;4.70;1.90;;;18.40;66.10;;;;;;6157627;23;20151;-85
2022/11/01 02:16:41;;;;;;;2.45;1.75;;;18.40;66.00;;;;;;6132593;23;20167;-86
2022/11/01 02:19:47;;;;;;;2.60;2.03;;;18.40;66.30;;;;;;6158389;23;20251;-86
2022/11/01 02:22:53;;;;;;;2.55;1.80;;;18.40;66.10;;;;;;6158013;23;20296;-86
2022/11/01 02:25:43;;;;;;;2.08;1.63;;;18.50;66.20;;;;;;6133026;23;20175;-86
2022/11/01 02:28:36;;;;;;;2.40;1.90;;;18.40;66.10;;;;;;6285185;22;20171;-86
2022/11/01 02:31:33;;;;;;;2.60;1.80;;;18.40;66.10;;;;;;6259355;22;20155;-86
2022/11/01 02:34:31;;;;;;;3.63;1.90;;;18.40;66.30;;;;;;6258946;22;20144;-85
2022/11/01 02:37:12;;;;;;;2.58;2.00;;;18.40;66.20;;;;;;6310432;22;20189;-86
2022/11/01 02:39:47;;;;;;;1.85;1.70;;;18.40;66.20;;;;;;6235055;22;20154;-86
2022/11/01 02:42:43;;;;;;;2.72;1.67;;;18.40;66.30;;;;;;6235391;22;20597;-85
2022/11/01 02:45:29;;;;;;;2.42;1.58;;;18.40;66.10;;;;;;6198004;22;20180;-86
2022/11/01 02:48:00;;;;;;;3.85;1.90;;;18.40;66.10;;;;;;6239098;22;20199;-86
2022/11/01 02:50:41;;;;;;;2.78;2.00;;;18.40;66.20;;;;;;6233862;22;20144;-86
2022/11/01 02:53:11;;;;;;;2.28;1.90;;;18.40;66.30;;;;;;6236172;22;20155;-86
2022/11/01 02:55:43;;;;;;;3.15;1.92;;;18.30;66.30;;;;;;6233759;22;20548;-86
2022/11/01 02:58:30;;;;;;;3.53;1.90;;;18.40;66.30;;;;;;6234729;22;20480;-86
2022/11/01 03:01:14;;;;;;;2.00;1.60;;;18.30;66.30;;;;;;6199008;23;20656;-86
2022/11/01 03:03:45;;;;;;;2.47;1.80;;;18.40;66.40;;;;;;6181332;23;20258;-86
2022/11/01 03:06:18;;;;;;;3.55;1.92;;;18.40;66.50;;;;;;6159044;23;20267;-86
2022/11/01 03:08:54;;;;;;;2.35;1.75;;;18.30;66.40;;;;;;6110715;23;20155;-86
2022/11/01 03:11:26;;;;;;;2.45;1.85;;;18.30;66.40;;;;;;6110864;23;20159;-86
2022/11/01 03:14:20;;;;;;;2.95;1.70;;;18.30;66.30;;;;;;6108823;23;20239;-86
2022/11/01 03:16:58;;;;;;;3.80;1.83;;;18.30;66.50;;;;;;6138673;23;20239;-86
2022/11/01 03:19:31;;;;;;;3.22;1.90;;;18.30;66.50;;;;;;6136510;23;20591;-86
2022/11/01 03:22:19;;;;;;;3.60;1.98;;;18.40;66.60;;;;;;6111465;23;20179;-85
2022/11/01 03:28:02;;;;;;;1.90;1.70;;;18.30;66.50;;;;;;6137850;23;20194;-86
2022/11/01 03:30:33;;;;;;;2.47;1.90;;;18.30;66.30;;;;;;6135344;23;20199;-86
2022/11/01 03:33:03;;;;;;;1.88;1.67;;;18.30;66.50;;;;;;6218750;23;20581;-86
2022/11/01 03:35:36;;;;;;;2.25;1.52;;;18.30;66.50;;;;;;6174333;23;20160;-86
2022/11/01 03:38:09;;;;;;;2.20;1.70;;;18.30;66.50;;;;;;6254969;22;20162;-85
2022/11/01 03:40:40;;;;;;;2.85;1.80;;;18.30;66.70;;;;;;6241061;22;20163;-86
2022/11/01 03:43:10;;;;;;;2.00;1.60;;;18.30;66.50;;;;;;6240638;22;20235;-87
2022/11/01 03:45:47;;;;;;;1.88;1.67;;;18.30;66.50;;;;;;6266459;22;20240;-86
2022/11/01 03:48:14;;;;;;;2.53;2.03;;;18.30;66.50;;;;;;6240020;22;20154;-86
2022/11/01 03:50:47;;;;;;;2.10;1.70;;;18.30;66.50;;;;;;6240222;22;20216;-86
2022/11/01 03:53:23;;;;;;;1.80;1.55;;;18.40;66.50;;;;;;6241177;22;20169;-86
2022/11/01 03:55:53;;;;;;;3.55;1.90;;;18.30;66.50;;;;;;6240324;22;20162;-86
2022/11/01 03:58:40;;;;;;;3.42;2.30;;;18.30;66.40;;;;;;6240668;22;20147;-86
2022/11/01 04:01:13;;;;;;;2.17;1.75;;;18.30;66.50;;;;;;6249788;22;20230;-86
2022/11/01 04:03:45;;;;;;;1.95;1.65;;;18.30;66.40;;;;;;6223415;22;20623;-86
2022/11/01 04:06:13;;;;;;;3.55;1.85;;;18.30;66.70;;;;;;6235700;22;20538;-85
2022/11/01 04:08:43;;;;;;;2.22;1.60;;;18.30;66.50;;;;;;6261515;22;20144;-86
2022/11/01 04:11:17;;;;;;;1.80;1.70;;;18.30;66.50;;;;;;6234799;22;20156;-86
2022/11/01 04:13:46;;;;;;;2.63;1.92;;;18.30;66.70;;;;;;6262050;22;20584;-86
2022/11/01 04:21:43;;;;;;;3.45;1.60;;;18.30;66.60;;;;;;6289471;22;20132;-86
2022/11/01 04:24:12;;;;;;;1.83;1.60;;;18.30;66.50;;;;;;6208336;22;20211;-86
2022/11/01 04:26:57;;;;;;;2.10;1.60;;;18.30;66.40;;;;;;6263029;22;20439;-86
2022/11/01 04:29:29;;;;;;;2.08;1.70;;;18.30;66.40;;;;;;6237565;22;20148;-86
2022/11/01 04:32:01;;;;;;;1.60;1.40;;;18.20;66.60;;;;;;6260973;22;20159;-86
2022/11/01 04:34:48;;;;;;;3.85;1.80;;;18.30;66.50;;;;;;6261081;22;20148;-86
2022/11/01 04:37:24;;;;;;;2.10;1.90;;;18.30;66.60;;;;;;6240853;22;20203;-86
2022/11/01 04:39:50;;;;;;;3.60;1.88;;;18.30;66.70;;;;;;6235027;22;20151;-86
2022/11/01 04:42:22;;;;;;;2.55;1.65;;;18.30;66.80;;;;;;6224190;23;20153;-86
2022/11/01 04:44:48;;;;;;;2.17;1.70;;;18.20;66.70;;;;;;6175230;23;20529;-86
2022/11/01 04:47:17;;;;;;;2.95;1.70;;;18.20;66.70;;;;;;6224265;23;20161;-86
2022/11/01 04:49:48;;;;;;;2.17;1.60;;;18.30;67.40;;;;;;6176457;23;20172;-86
2022/11/01 04:52:21;;;;;;;2.58;1.80;;;18.30;66.50;;;;;;6174364;23;20153;-86
2022/11/01 04:54:50;;;;;;;2.65;1.77;;;18.30;66.40;;;;;;6173139;23;20150;-85
2022/11/01 04:57:23;;;;;;;3.05;1.90;;;18.30;66.50;;;;;;6198260;23;20153;-85
2022/11/01 04:59:57;;;;;;;2.03;1.60;;;18.30;66.60;;;;;;6174189;23;20160;-86
2022/11/01 05:02:23;;;;;;;2.17;1.75;;;18.20;66.60;;;;;;6198090;22;20159;-86
2022/11/01 05:04:49;;;;;;;2.58;2.00;;;18.20;66.80;;;;;;6223533;23;20544;-86
2022/11/01 05:07:15;;;;;;;2.42;1.50;;;18.30;66.70;;;;;;6198210;23;20153;-86
2022/11/01 05:09:42;;;;;;;2.72;1.90;;;18.30;66.70;;;;;;6223544;23;20552;-86
2022/11/01 05:12:08;;;;;;;2.17;1.50;;;18.20;67.00;;;;;;6225693;22;20145;-86
2022/11/01 05:14:38;;;;;;;2.33;2.03;;;18.20;66.80;;;;;;6285890;22;20128;-86
2022/11/01 05:17:08;;;;;;;2.05;1.80;;;18.20;66.50;;;;;;6184057;22;20159;-86
2022/11/01 05:19:36;;;;;;;2.47;1.60;;;18.20;67.00;;;;;;6184298;22;20599;-86
2022/11/01 05:22:03;;;;;;;2.92;1.52;;;18.30;66.70;;;;;;6285736;22;20136;-86
2022/11/01 05:24:34;;;;;;;2.15;1.60;;;18.20;66.80;;;;;;6259096;22;20607;-86
2022/11/01 05:27:00;;;;;;;2.00;1.70;;;18.20;66.90;;;;;;6236420;22;20257;-85
2022/11/01 05:29:26;;;;;;;1.67;1.58;;;18.20;66.70;;;;;;6290698;22;20148;-86
2022/11/01 05:31:58;;;;;;;3.67;1.60;;;18.20;66.50;;;;;;6318169;22;20129;-86
2022/11/01 05:34:24;;;;;;;3.15;1.90;;;18.30;66.60;;;;;;6214655;22;20167;-86
2022/11/01 05:36:50;;;;;;;2.45;2.05;;;18.30;66.80;;;;;;6295086;22;20147;-86
2022/11/01 05:39:18;;;;;;;1.85;1.63;;;18.20;66.80;;;;;;6264039;22;20128;-86
2022/11/01 05:41:47;;;;;;;2.45;1.98;;;18.20;66.80;;;;;;6262951;22;20146;-86
2022/11/01 05:44:17;;;;;;;1.95;1.60;;;18.30;66.50;;;;;;6238336;22;20140;-86
2022/11/01 05:46:47;;;;;;;2.08;1.77;;;18.20;66.70;;;;;;6227182;22;20161;-86
2022/11/01 05:49:13;;;;;;;1.65;1.55;;;18.20;66.70;;;;;;6230604;22;20174;-84
2022/11/01 05:51:45;;;;;;;2.65;1.98;;;18.20;66.70;;;;;;6290894;22;20178;-86
2022/11/01 05:54:17;;;;;;;2.72;1.73;;;18.20;66.80;;;;;;6232605;22;20156;-86
2022/11/01 05:56:51;;;;;;;2.50;2.00;;;18.20;66.90;;;;;;6182712;22;20622;-86
2022/11/01 05:59:21;;;;;;;2.08;1.70;;;18.20;67.00;;;;;;6183277;22;20162;-86
2022/11/01 06:01:54;;;;;;;2.28;1.70;;;18.20;66.90;;;;;;6259612;22;20158;-86
2022/11/01 06:04:24;;;;;;;2.50;1.70;;;18.20;66.80;;;;;;6207185;22;20222;-86
2022/11/01 06:06:50;;;;;;;2.17;1.67;;;18.20;66.80;;;;;;6232703;22;20147;-86
2022/11/01 06:09:16;;;;;;;1.85;1.60;;;18.20;67.10;;;;;;6258892;22;20227;-86
2022/11/01 06:11:47;;;;;;;2.75;1.95;;;18.20;67.00;;;;;;6285488;22;20181;-86
2022/11/01 06:14:16;;;;;;;1.95;1.63;;;18.30;67.20;;;;;;6259720;22;20170;-86
2022/11/01 06:16:43;;;;;;;1.83;1.65;;;18.30;66.60;;;;;;6291982;22;20155;-86
2022/11/01 06:19:24;;;;;;;2.75;1.55;;;18.30;66.50;;;;;;6269057;22;20540;-86
2022/11/01 06:22:04;;;;;;;2.00;1.80;;;18.30;66.10;;;;;;6218722;22;20152;-86
2022/11/01 06:24:39;;;;;;;2.72;1.70;;;18.40;65.80;;;;;;6198229;23;20178;-86
2022/11/01 06:27:20;;;;;;;1.50;1.40;;;18.40;66.00;;;;;;6107941;23;20147;-86
2022/11/01 06:30:01;;;;;;;2.70;1.67;;;18.50;66.40;;;;;;6087775;23;20254;-85
2022/11/01 06:32:49;;;;;;;1.48;1.38;;;18.40;65.50;;;;;;6108463;23;20160;-85
2022/11/01 06:35:25;;;;;;;2.35;1.55;;;18.40;65.50;;;;;;6085941;23;20157;-86
2022/11/01 06:38:05;;;;;;;1.85;1.42;;;18.40;65.40;;;;;;6086036;23;20160;-86
2022/11/01 06:40:46;;;;;;;1.60;1.50;;;18.40;65.50;;;;;;6057729;23;20157;-86
2022/11/01 06:43:19;;;;;;;1.98;1.67;;;18.50;65.50;;;;;;6026006;23;20182;-86
2022/11/01 06:45:54;;;;;;;1.92;1.45;;;18.40;65.60;;;;;;6050193;23;20533;-86
2022/11/01 06:48:35;;;;;;;1.88;1.60;;;18.50;65.40;;;;;;6025549;23;20569;-86
2022/11/01 06:51:07;;;;;;;1.40;1.30;;;18.50;65.60;;;;;;6026820;23;20173;-86
2022/11/01 06:53:50;;;;;;;1.45;1.30;;;18.50;65.30;;;;;;6050614;23;20154;-86
2022/11/01 06:56:23;;;;;;;1.90;1.60;;;18.50;65.30;;;;;;6026716;23;20181;-86
2022/11/01 06:58:57;;;;;;;1.40;1.30;;;18.50;65.60;;;;;;6120288;23;20155;-86
2022/11/01 07:01:36;;;;;;;2.35;1.50;;;18.50;65.60;;;;;;6103565;23;20157;-86
2022/11/01 07:04:04;;;;;;;2.17;1.77;;;18.50;65.30;;;;;;6104283;23;20259;-85
2022/11/01 07:06:48;;;;;;;2.03;1.58;;;18.50;65.40;;;;;;6086415;23;20671;-86
2022/11/01 07:09:22;;;;;;;1.50;1.40;;;18.50;65.60;;;;;;6004615;23;20181;-86
2022/11/01 07:11:53;;;;;;;2.05;1.42;;;18.50;65.40;;;;;;6003695;23;20162;-86
2022/11/01 07:14:41;;;;;;;1.80;1.50;;;18.50;65.50;;;;;;5998601;23;20623;-88
2022/11/01 07:17:23;;;;;;;3.45;1.48;;;18.50;65.60;;;;;;5994090;23;20563;-84
2022/11/01 07:19:54;;;;;;;1.50;1.27;;;18.50;65.20;;;;;;6020271;23;20166;-85
2022/11/01 07:22:42;;;;;;;1.75;1.35;;;18.50;65.00;;;;;;5986099;23;20239;-85
2022/11/01 07:25:21;;;;;;;1.95;1.40;;;18.50;65.00;;;;;;6051503;23;20186;-84
2022/11/01 07:27:58;;;;;;;1.60;1.50;;;18.50;65.00;;;;;;6007886;23;20178;-85
2022/11/01 07:30:36;;;;;;;1.98;1.40;;;18.50;64.90;;;;;;6001220;23;20152;-85
2022/11/01 07:33:40;;;;;;;1.70;1.60;;;18.60;65.00;;;;;;6067688;23;20247;-85
2022/11/01 07:36:22;;;;;;;1.60;1.50;;;18.60;65.00;;;;;;6094608;23;20160;-85
2022/11/01 07:38:55;;;;;;;2.10;1.42;;;18.60;65.00;;;;;;6085088;23;20272;-85
2022/11/01 07:41:38;;;;;;;1.52;1.40;;;18.60;64.80;;;;;;6058509;23;20189;-85
2022/11/01 07:44:48;;;;;;;;;;;;;;;;;;;;;
2022/11/01 07:47:31;;;;;;;1.58;1.40;;;18.60;64.60;;;;;;6106248;23;20159;-85
2022/11/01 07:50:07;;;;;;;1.63;1.48;;;18.60;64.70;;;;;;6014607;23;20149;-85
2022/11/01 07:52:38;;;;;;;1.60;1.50;;;18.60;64.80;;;;;;6061831;23;20152;-86
2022/11/01 07:55:17;;;;;;;1.67;1.27;;;18.60;64.70;;;;;;6060434;23;20176;-86
2022/11/01 07:57:49;;;;;;;2.47;1.58;;;18.60;64.80;;;;;;6060614;23;20156;-86
2022/11/01 08:00:19;;;;;;;1.30;1.20;;;18.60;64.70;;;;;;6034972;23;20678;-86
2022/11/01 08:03:07;;;;;;;2.08;1.50;;;18.50;64.70;;;;;;6057899;23;20160;-86
2022/11/01 08:05:41;;;;;;;1.63;1.50;;;18.60;64.70;;;;;;6070892;23;20655;-86
2022/11/01 08:08:12;;;;;;;2.05;1.33;;;18.60;64.70;;;;;;6040262;23;20148;-86
2022/11/01 08:10:42;;;;;;;1.40;1.27;;;18.60;64.70;;;;;;6063047;23;20212;-86
2022/11/01 08:13:22;;;;;;;1.98;1.42;;;18.60;64.70;;;;;;6035125;23;20235;-86
2022/11/01 08:16:05;;;;;;;1.70;1.30;;;18.60;64.90;;;;;;6027900;23;20163;-85
2022/11/01 08:18:36;;;;;;;1.95;1.40;;;18.60;64.80;;;;;;6082436;23;20191;-86
2022/11/01 08:21:17;;;;;;;1.15;1.05;;;18.60;64.60;;;;;;6083135;23;20218;-86
2022/11/01 08:23:48;;;;;;;1.40;1.23;;;18.60;64.10;;;;;;6180964;22;20596;-86
2022/11/01 08:26:28;;;;;;;3.47;1.55;;;18.60;65.00;;;;;;6230570;22;20284;-86
2022/11/01 08:28:59;;;;;;;2.40;1.30;;;18.60;65.70;;;;;;6182325;22;20149;-86
2022/11/01 08:31:26;;;;;;;1.98;1.67;;;18.60;64.30;;;;;;6195098;23;20150;-85
2022/11/01 08:33:56;;;;;;;1.67;1.27;;;18.60;64.90;;;;;;6198706;23;20154;-86
2022/11/01 08:37:17;;;;;;;;;;;;;;;;;;;;;
2022/11/01 08:39:47;;;;;;;1.83;1.20;;;18.70;64.50;;;;;;6182951;23;20181;-85
2022/11/01 08:42:17;;;;;;;1.42;1.30;;;18.70;64.40;;;;;;6199222;23;20161;-86
2022/11/01 08:44:49;;;;;;;3.42;1.38;;;18.70;64.50;;;;;;6196066;23;20188;-85
2022/11/01 08:47:18;;;;;;;2.22;1.38;;;18.70;64.40;;;;;;6171884;23;20150;-86
2022/11/01 08:49:47;;;;;;;1.70;1.20;;;18.70;64.50;;;;;;6196835;23;20222;-86
2022/11/01 08:52:24;;;;;;;2.38;1.40;;;18.70;64.00;;;;;;6170711;23;20161;-85
2022/11/01 08:55:25;;;;;;;4.30;1.45;;;18.80;64.00;;;;;;6177634;22;20166;-84
2022/11/01 08:58:24;;;;;;;2.55;1.45;;;18.70;64.50;;;;;;6231607;22;20162;-85
2022/11/01 09:00:55;;;;;;;3.67;1.33;;;18.80;64.80;;;;;;6236901;22;20148;-83
2022/11/01 09:03:35;;;;;;;2.20;1.27;;;18.80;64.70;;;;;;6265557;22;20171;-85
2022/11/01 09:06:05;;;;;;;2.80;1.60;;;18.80;64.90;;;;;;6193877;23;20189;-85
2022/11/01 09:08:49;;;;;;;6.07;1.50;;;18.80;64.90;;;;;;6146319;23;20158;-86
2022/11/01 09:11:20;;;;;;;2.85;1.30;;;18.80;64.70;;;;;;6145867;23;20188;-84
2022/11/01 09:13:56;;;;;;;3.17;1.23;;;18.80;64.20;;;;;;6151200;23;20153;-85
2022/11/01 09:20:33;;;;;;;1.98;1.40;;;18.80;64.80;;;;;;6227790;23;20157;-84
2022/11/01 09:23:11;;;;;;;2.95;1.65;;;18.70;64.70;;;;;;6194123;23;20164;-85
2022/11/01 09:25:44;;;;;;;2.72;1.52;;;18.80;64.40;;;;;;6143699;23;20189;-84
2022/11/01 09:29:05;;;;;;;2.67;1.17;;;18.80;64.60;;;;;;6141961;23;20502;-86
2022/11/01 09:31:39;;;;;;;2.03;1.35;;;18.80;63.80;;;;;;6129535;23;20159;-86
2022/11/01 09:34:15;;;;;;;1.73;1.40;;;18.80;63.80;;;;;;6075559;23;20153;-85
2022/11/01 09:37:05;;;;;;;1.85;1.38;;;18.90;64.50;;;;;;6078824;23;20168;-87
2022/11/01 09:40:26;;;;;;;;;;;;;;;;;;;;;
2022/11/01 09:46:36;;;;;;;1.40;1.23;;;18.90;64.10;;;;;;5993485;23;20206;-85
2022/11/01 09:49:10;;;;;;;4.13;1.48;;;18.90;64.30;;;;;;5984699;24;20196;-86
2022/11/01 09:52:05;;;;;;;1.85;1.40;;;18.90;64.50;;;;;;5986592;24;20186;-84
2022/11/01 09:55:25;;;;;;;5.97;1.63;;;18.90;64.00;;;;;;5935109;24;20179;-86
2022/11/01 09:58:18;;;;;;;2.45;1.60;;;18.90;64.90;;;;;;5937920;24;20263;-86
2022/11/01 10:01:11;;;;;;;5.10;1.58;;;19.00;64.20;;;;;;5893381;24;20228;-85
2022/11/01 10:08:00;;;;;;;;;;;;;;;;;;;;;
2022/11/01 10:14:55;;;;;;;2.05;1.10;;;19.00;64.30;;;;;;5885354;24;20166;-86
2022/11/01 10:17:53;;;;;;;1.92;1.38;;;19.10;63.80;;;;;;5828156;24;20171;-86
2022/11/01 10:24:21;;;;;;;;;;;;;;;;;;;;;
2022/11/01 10:27:16;;;;;;;;;;;;;;;;;;;;;
2022/11/01 10:30:02;;;;;;;3.50;1.42;;;19.10;64.10;;;;;;5810379;24;20185;-83
2022/11/01 10:32:50;;;;;;;6.18;1.60;;;19.10;64.20;;;;;;5801054;24;20179;-83
2022/11/01 10:35:55;;;;;;;10.40;1.98;;;19.10;64.10;;;;;;5819769;24;20500;-84
2022/11/01 10:39:19;;;;;;;;;;;;;;;;;;;;;
2022/11/01 10:42:31;;;;;;;5.55;1.60;;;19.10;64.80;;;;;;5770700;24;20220;-86
2022/11/01 10:45:07;;;;;;;2.50;1.50;;;19.10;65.10;;;;;;5783353;24;20322;-83
2022/11/01 10:47:42;;;;;;;1.88;1.42;;;19.10;64.90;;;;;;5723268;24;20164;-85
2022/11/01 10:50:42;;;;;;;5.38;1.85;;;19.10;65.00;;;;;;5806315;24;20184;-85
2022/11/01 10:53:26;;;;;;;3.08;1.35;;;19.10;64.80;;;;;;5806069;24;20156;-85
2022/11/01 10:56:12;;;;;;;;;;;;;;;;;;;;;
2022/11/01 11:02:30;;;;;;;4.05;1.40;;;19.10;65.20;;;;;;5905001;24;20245;-84
2022/11/01 11:05:15;;;;;;;5.47;1.60;;;19.10;64.90;;;;;;5992280;23;20266;-85
2022/11/01 11:07:49;;;;;;;3.75;1.50;;;19.10;65.30;;;;;;5969816;23;20435;-84
2022/11/01 11:10:20;;;;;;;4.13;1.73;;;19.10;65.40;;;;;;5992950;23;20166;-84
2022/11/01 11:12:46;;;;;;;5.75;1.80;;;19.00;65.30;;;;;;5972562;23;20147;-85
2022/11/01 11:15:24;;;;;;;3.17;1.30;;;19.10;65.50;;;;;;5965698;23;20607;-84
2022/11/01 11:18:15;;;;;;;4.75;1.50;;;19.10;64.80;;;;;;6017269;23;20163;-84
2022/11/01 11:21:25;;;;;;;2.67;1.73;;;19.10;64.00;;;;;;5964913;24;20227;-86
2022/11/01 11:23:59;;;;;;;3.95;1.65;;;19.10;66.00;;;;;;5936496;24;20757;-86
2022/11/01 11:26:53;;;;;;;5.32;1.80;;;19.10;63.90;;;;;;5916365;24;20291;-85
2022/11/01 11:29:57;;;;;;;;;;;;;;;;;;;;;
2022/11/01 11:33:15;;;;;;;;;;;;;;;;;;;;;
2022/11/01 11:36:09;;;;;;;;;;;;;;;;;;;;;
2022/11/01 11:38:49;;;;;;;3.22;1.60;;;19.10;64.40;;;;;;5865547;24;20192;-86
2022/11/01 11:41:38;;;;;;;3.67;1.88;;;19.10;64.50;;;;;;5840995;24;20157;-86
2022/11/01 11:44:43;;;;;;;4.30;1.42;;;19.10;64.90;;;;;;5887400;24;20215;-86
2022/11/01 11:47:27;;;;;;;8.00;1.65;;;19.10;64.70;;;;;;5905648;24;20194;-86
2022/11/01 11:51:08;;;;;;;3.17;1.52;;;19.10;64.90;;;;;;5866289;24;20161;-86
2022/11/01 11:53:28;;;;;;;3.63;1.95;;;19.10;64.50;;;;;;5905848;24;20180;-86
2022/11/01 11:56:45;;;;;;;;;;;;;;;;;;;;;
2022/11/01 11:59:32;;;;;;;4.88;1.77;;;19.10;64.90;;;;;;5855905;24;20159;-85
2022/11/01 12:02:32;;;;;;;6.38;1.67;;;19.10;64.90;;;;;;5834742;24;20266;-87
2022/11/01 12:05:03;;;;;;;5.10;1.48;;;19.10;64.90;;;;;;5877469;24;20206;-84
2022/11/01 12:07:34;;;;;;;2.45;1.70;;;19.10;65.00;;;;;;5901146;24;20206;-86
2022/11/01 12:10:26;;;;;;;3.20;1.85;;;19.10;64.70;;;;;;5938031;24;20601;-86
2022/11/01 12:12:55;;;;;;;5.20;1.77;;;19.10;64.90;;;;;;5908115;24;20178;-84
2022/11/01 12:15:38;;;;;;;5.45;1.50;;;19.10;64.60;;;;;;5907213;24;20161;-84
2022/11/01 12:18:20;;;;;;;5.63;1.67;;;19.10;64.20;;;;;;5956373;24;20155;-85
2022/11/01 12:22:25;;;;;;;4.95;1.77;;;19.10;65.10;;;;;;5987738;23;20155;-86
2022/11/01 12:24:30;;;;;;;5.75;1.80;;;19.10;64.30;;;;;;5949080;24;20215;-85
2022/11/01 12:27:04;;;;;;;3.47;1.42;;;19.10;65.50;;;;;;5960761;23;20615;-85
2022/11/01 12:29:52;;;;;;;2.78;1.40;;;19.10;65.40;;;;;;5987800;23;20205;-85
2022/11/01 12:33:01;;;;;;;;;;;;;;;;;;;;;
2022/11/01 12:36:11;;;;;;;3.53;1.77;;;19.10;65.10;;;;;;5992895;23;20491;-86
2022/11/01 12:38:58;;;;;;;7.30;1.83;;;19.20;64.50;;;;;;5950643;24;20159;-86
2022/11/01 12:42:12;;;;;;;4.53;1.58;;;19.10;64.70;;;;;;5920283;24;20182;-86
2022/11/01 12:44:47;;;;;;;4.55;1.58;;;19.10;64.90;;;;;;5936329;24;20190;-85
2022/11/01 12:47:40;;;;;;;;;;;;;;;;;;;;;
2022/11/01 12:50:22;;;;;;;4.25;1.60;;;19.10;65.20;;;;;;5950290;24;20183;-86
2022/11/01 12:52:56;;;;;;;2.58;1.50;;;19.10;65.10;;;;;;5962462;24;20151;-83
2022/11/01 12:55:41;;;;;;;3.70;1.38;;;19.10;64.20;;;;;;5960354;24;20163;-84
2022/11/01 12:58:17;;;;;;;4.70;1.80;;;19.10;65.10;;;;;;6014515;23;20632;-84
2022/11/01 13:01:13;;;;;;;2.63;1.55;;;19.10;65.20;;;;;;6118750;23;20277;-85
2022/11/01 13:04:23;;;;;;;2.78;1.63;;;19.10;65.40;;;;;;6124526;23;20162;-85
2022/11/01 13:06:57;;;;;;;4.88;1.88;;;19.10;65.20;;;;;;6170738;23;20162;-84
2022/11/01 13:09:34;;;;;;;2.75;1.80;;;19.10;64.90;;;;;;6186893;23;20135;-85
2022/11/01 13:12:08;;;;;;;4.38;1.90;;;19.10;65.20;;;;;;6198051;22;20152;-84
2022/11/01 13:14:54;;;;;;;3.53;1.70;;;19.10;66.10;;;;;;6283113;22;20135;-84
2022/11/01 13:17:53;;;;;;;4.88;1.80;;;19.10;65.00;;;;;;6290386;22;20211;-84
2022/11/01 13:20:28;;;;;;;7.55;1.83;;;19.20;65.20;;;;;;6291928;22;20129;-81
2022/11/01 13:23:04;;;;;;;7.63;2.15;;;19.10;65.20;;;;;;6210219;22;20239;-83
2022/11/01 13:25:50;;;;;;;2.63;1.75;;;19.10;65.20;;;;;;6259295;22;20171;-83
2022/11/01 13:28:23;;;;;;;5.95;1.75;;;19.10;65.00;;;;;;6259700;22;20148;-84
2022/11/01 13:31:13;;;;;;;2.88;1.80;;;19.10;65.20;;;;;;6283734;22;20132;-83
2022/11/01 13:33:46;;;;;;;3.47;1.58;;;19.10;65.50;;;;;;6263276;22;20163;-84
2022/11/01 13:36:21;;;;;;;2.45;1.50;;;19.00;64.50;;;;;;6255869;22;20574;-84
2022/11/01 13:38:52;;;;;;;4.13;1.83;;;19.10;65.00;;;;;;6281872;22;20509;-84
2022/11/01 13:41:29;;;;;;;2.75;1.80;;;19.10;65.50;;;;;;6282042;22;20188;-83
2022/11/01 13:43:58;;;;;;;2.10;1.60;;;19.00;65.50;;;;;;6205976;22;20239;-82
2022/11/01 13:46:40;;;;;;;5.05;1.65;;;19.00;65.20;;;;;;6281108;22;20662;-83
2022/11/01 13:49:09;;;;;;;2.28;1.80;;;19.00;65.40;;;;;;6309737;22;20132;-83
2022/11/01 13:51:41;;;;;;;3.20;1.90;;;19.00;65.20;;;;;;6283169;22;20136;-83
2022/11/01 13:54:22;;;;;;;5.80;1.45;;;19.00;65.40;;;;;;6232808;22;20140;-82
2022/11/01 13:57:11;;;;;;;3.38;1.70;;;19.00;65.50;;;;;;6256455;22;20140;-84
2022/11/01 13:59:45;;;;;;;2.55;1.60;;;19.00;65.40;;;;;;6258671;22;20140;-83
2022/11/01 14:02:44;;;;;;;3.10;1.58;;;19.00;65.40;;;;;;6281235;22;20639;-83
2022/11/01 14:05:11;;;;;;;2.38;1.70;;;19.00;64.60;;;;;;6283189;22;20245;-84
2022/11/01 14:07:57;;;;;;;7.40;1.95;;;19.10;65.20;;;;;;6257252;22;20179;-83
2022/11/01 14:10:48;;;;;;;4.10;1.75;;;19.00;65.10;;;;;;6264945;22;20468;-83
2022/11/01 14:13:29;;;;;;;7.07;2.22;;;19.10;65.20;;;;;;6204735;22;20215;-85
2022/11/01 14:16:00;;;;;;;3.95;1.52;;;19.00;65.10;;;;;;6235937;22;20151;-84
2022/11/01 14:18:32;;;;;;;3.97;1.67;;;19.10;64.60;;;;;;6282617;22;20473;-84
2022/11/01 14:21:04;;;;;;;3.22;1.73;;;19.10;65.10;;;;;;6202669;22;20148;-84
2022/11/01 14:23:47;;;;;;;3.45;1.70;;;19.10;64.90;;;;;;6201494;22;20255;-84
2022/11/01 14:26:33;;;;;;;5.93;1.80;;;19.10;65.10;;;;;;6225586;22;20504;-84
2022/11/01 14:29:07;;;;;;;2.85;1.60;;;19.10;65.10;;;;;;6202071;22;20255;-84
2022/11/01 14:31:36;;;;;;;3.80;2.00;;;19.00;65.20;;;;;;6202333;22;20151;-85
2022/11/01 14:34:27;;;;;;;3.22;1.77;;;19.10;65.30;;;;;;6253735;22;20186;-85
2022/11/01 14:37:01;;;;;;;3.20;1.52;;;19.10;64.10;;;;;;6219781;23;20149;-84